sensor_id;sensor_type;location;lat;lon;timestamp;temperature;humidity
20568;DHT22;10442;49.932;11.592;2022-10-31T00:01:14;13.00;76.80
20568;DHT22;10442;49.932;11.592;2022-10-31T00:03:42;13.00;77.00
20568;DHT22;10442;49.932;11.592;2022-10-31T00:06:10;13.00;77.00
20568;DHT22;10442;49.932;11.592;2022-10-31T00:08:38;12.90;77.00
20568;DHT22;10442;49.932;11.592;2022-10-31T00:11:09;12.90;77.00
20568;DHT22;10442;49.932;11.592;2022-10-31T00:13:37;12.90;76.90
20568;DHT22;10442;49.932;11.592;2022-10-31T00:16:05;12.80;76.80
20568;DHT22;10442;49.932;11.592;2022-10-31T00:18:32;12.80;76.80
20568;DHT22;10442;49.932;11.592;2022-10-31T00:21:03;12.80;76.70
20568;DHT22;10442;49.932;11.592;2022-10-31T00:23:30;12.70;76.80
20568;DHT22;10442;49.932;11.592;2022-10-31T00:26:02;12.70;76.70
20568;DHT22;10442;49.932;11.592;2022-10-31T00:28:30;12.60;76.70
20568;DHT22;10442;49.932;11.592;2022-10-31T00:31:04;12.60;76.70
20568;DHT22;10442;49.932;11.592;2022-10-31T00:33:34;12.60;77.10
20568;DHT22;10442;49.932;11.592;2022-10-31T00:36:05;12.60;77.10
20568;DHT22;10442;49.932;11.592;2022-10-31T00:38:33;12.50;77.10
20568;DHT22;10442;49.932;11.592;2022-10-31T00:41:00;12.50;77.00
20568;DHT22;10442;49.932;11.592;2022-10-31T00:43:27;12.50;76.90
20568;DHT22;10442;49.932;11.592;2022-10-31T00:45:55;12.50;76.90
20568;DHT22;10442;49.932;11.592;2022-10-31T00:48:24;12.50;76.90
20568;DHT22;10442;49.932;11.592;2022-10-31T00:50:52;12.40;76.90
20568;DHT22;10442;49.932;11.592;2022-10-31T00:53:20;12.40;77.00
20568;DHT22;10442;49.932;11.592;2022-10-31T00:55:48;12.40;77.00
20568;DHT22;10442;49.932;11.592;2022-10-31T00:58:16;12.40;77.40
20568;DHT22;10442;49.932;11.592;2022-10-31T01:00:43;12.30;77.40
20568;DHT22;10442;49.932;11.592;2022-10-31T01:03:17;12.30;77.20
20568;DHT22;10442;49.932;11.592;2022-10-31T01:05:44;12.30;77.10
20568;DHT22;10442;49.932;11.592;2022-10-31T01:08:12;12.20;77.00
20568;DHT22;10442;49.932;11.592;2022-10-31T01:10:39;12.20;76.90
20568;DHT22;10442;49.932;11.592;2022-10-31T01:13:08;12.20;76.90
20568;DHT22;10442;49.932;11.592;2022-10-31T01:15:36;12.20;77.10
20568;DHT22;10442;49.932;11.592;2022-10-31T01:18:06;12.10;77.10
20568;DHT22;10442;49.932;11.592;2022-10-31T01:20:33;12.10;77.10
20568;DHT22;10442;49.932;11.592;2022-10-31T01:23:01;12.10;77.30
20568;DHT22;10442;49.932;11.592;2022-10-31T01:25:28;12.00;77.30
20568;DHT22;10442;49.932;11.592;2022-10-31T01:27:56;12.00;77.20
20568;DHT22;10442;49.932;11.592;2022-10-31T01:30:23;12.00;77.30
20568;DHT22;10442;49.932;11.592;2022-10-31T01:32:53;12.00;77.50
20568;DHT22;10442;49.932;11.592;2022-10-31T01:35:20;12.00;77.60
20568;DHT22;10442;49.932;11.592;2022-10-31T01:37:48;11.90;77.60
20568;DHT22;10442;49.932;11.592;2022-10-31T01:40:15;11.90;77.60
20568;DHT22;10442;49.932;11.592;2022-10-31T01:42:43;11.90;77.50
20568;DHT22;10442;49.932;11.592;2022-10-31T01:45:10;11.90;77.60
20568;DHT22;10442;49.932;11.592;2022-10-31T01:47:42;11.90;77.60
20568;DHT22;10442;49.932;11.592;2022-10-31T01:50:28;11.90;77.60
20568;DHT22;10442;49.932;11.592;2022-10-31T01:53:00;11.90;77.70
20568;DHT22;10442;49.932;11.592;2022-10-31T01:55:32;11.90;77.70
20568;DHT22;10442;49.932;11.592;2022-10-31T01:58:05;11.90;77.80
20568;DHT22;10442;49.932;11.592;2022-10-31T02:00:34;11.90;77.90
20568;DHT22;10442;49.932;11.592;2022-10-31T02:03:01;11.90;77.90
20568;DHT22;10442;49.932;11.592;2022-10-31T02:05:30;11.80;77.70
20568;DHT22;10442;49.932;11.592;2022-10-31T02:08:16;11.80;77.70
20568;DHT22;10442;49.932;11.592;2022-10-31T02:10:49;11.80;77.70
20568;DHT22;10442;49.932;11.592;2022-10-31T02:13:17;11.80;77.70
20568;DHT22;10442;49.932;11.592;2022-10-31T02:15:53;11.80;77.60
20568;DHT22;10442;49.932;11.592;2022-10-31T02:18:22;11.80;77.60
20568;DHT22;10442;49.932;11.592;2022-10-31T02:20:59;11.80;77.60
20568;DHT22;10442;49.932;11.592;2022-10-31T02:23:53;11.70;77.70
20568;DHT22;10442;49.932;11.592;2022-10-31T02:26:51;11.70;77.60
20568;DHT22;10442;49.932;11.592;2022-10-31T02:34:57;11.60;77.50
20568;DHT22;10442;49.932;11.592;2022-10-31T02:37:38;11.60;77.50
20568;DHT22;10442;49.932;11.592;2022-10-31T02:40:22;11.60;77.70
20568;DHT22;10442;49.932;11.592;2022-10-31T02:48:37;11.50;77.80
20568;DHT22;10442;49.932;11.592;2022-10-31T02:51:07;11.50;77.90
20568;DHT22;10442;49.932;11.592;2022-10-31T02:53:37;11.50;77.90
20568;DHT22;10442;49.932;11.592;2022-10-31T02:56:18;11.40;77.80
20568;DHT22;10442;49.932;11.592;2022-10-31T02:58:48;11.40;78.20
20568;DHT22;10442;49.932;11.592;2022-10-31T03:01:22;11.40;78.20
20568;DHT22;10442;49.932;11.592;2022-10-31T03:06:33;11.40;78.60
20568;DHT22;10442;49.932;11.592;2022-10-31T03:09:18;11.40;78.50
20568;DHT22;10442;49.932;11.592;2022-10-31T03:12:17;11.40;78.60
20568;DHT22;10442;49.932;11.592;2022-10-31T03:14:54;11.40;78.50
20568;DHT22;10442;49.932;11.592;2022-10-31T03:17:34;11.40;78.30
20568;DHT22;10442;49.932;11.592;2022-10-31T03:20:06;11.40;78.20
20568;DHT22;10442;49.932;11.592;2022-10-31T03:22:38;11.40;78.20
20568;DHT22;10442;49.932;11.592;2022-10-31T03:25:08;11.30;78.10
20568;DHT22;10442;49.932;11.592;2022-10-31T03:27:37;11.30;78.00
20568;DHT22;10442;49.932;11.592;2022-10-31T03:30:07;11.30;77.80
20568;DHT22;10442;49.932;11.592;2022-10-31T03:32:56;11.30;77.70
20568;DHT22;10442;49.932;11.592;2022-10-31T03:35:28;11.20;78.40
20568;DHT22;10442;49.932;11.592;2022-10-31T03:37:59;11.20;77.70
20568;DHT22;10442;49.932;11.592;2022-10-31T03:40:35;11.20;77.80
20568;DHT22;10442;49.932;11.592;2022-10-31T03:43:06;11.20;77.80
20568;DHT22;10442;49.932;11.592;2022-10-31T03:45:44;11.10;77.70
20568;DHT22;10442;49.932;11.592;2022-10-31T03:48:14;11.10;77.60
20568;DHT22;10442;49.932;11.592;2022-10-31T03:53:30;11.00;77.60
20568;DHT22;10442;49.932;11.592;2022-10-31T03:56:12;11.00;77.60
20568;DHT22;10442;49.932;11.592;2022-10-31T03:58:57;11.00;77.60
20568;DHT22;10442;49.932;11.592;2022-10-31T04:01:30;10.90;77.60
20568;DHT22;10442;49.932;11.592;2022-10-31T04:03:59;10.90;77.60
20568;DHT22;10442;49.932;11.592;2022-10-31T04:06:27;10.90;77.50
20568;DHT22;10442;49.932;11.592;2022-10-31T04:08:58;10.90;77.60
20568;DHT22;10442;49.932;11.592;2022-10-31T04:11:34;10.80;77.70
20568;DHT22;10442;49.932;11.592;2022-10-31T04:14:33;10.80;77.60
20568;DHT22;10442;49.932;11.592;2022-10-31T04:17:04;10.80;77.60
20568;DHT22;10442;49.932;11.592;2022-10-31T04:19:36;10.80;77.70
20568;DHT22;10442;49.932;11.592;2022-10-31T04:22:04;10.70;77.50
20568;DHT22;10442;49.932;11.592;2022-10-31T04:24:31;10.70;77.50
20568;DHT22;10442;49.932;11.592;2022-10-31T04:26:59;10.70;77.60
20568;DHT22;10442;49.932;11.592;2022-10-31T04:29:28;10.70;77.60
20568;DHT22;10442;49.932;11.592;2022-10-31T04:31:55;10.60;77.50
20568;DHT22;10442;49.932;11.592;2022-10-31T04:34:23;10.60;77.60
20568;DHT22;10442;49.932;11.592;2022-10-31T04:36:50;10.60;77.60
20568;DHT22;10442;49.932;11.592;2022-10-31T04:39:18;10.60;77.50
20568;DHT22;10442;49.932;11.592;2022-10-31T04:42:19;10.50;77.50
20568;DHT22;10442;49.932;11.592;2022-10-31T04:44:46;10.50;77.50
20568;DHT22;10442;49.932;11.592;2022-10-31T04:47:15;10.50;77.50
20568;DHT22;10442;49.932;11.592;2022-10-31T04:49:42;10.50;77.60
20568;DHT22;10442;49.932;11.592;2022-10-31T04:52:11;10.40;77.50
20568;DHT22;10442;49.932;11.592;2022-10-31T04:54:39;10.50;77.50
20568;DHT22;10442;49.932;11.592;2022-10-31T04:57:42;10.50;77.70
20568;DHT22;10442;49.932;11.592;2022-10-31T05:00:12;10.40;77.70
20568;DHT22;10442;49.932;11.592;2022-10-31T05:02:47;10.40;77.70
20568;DHT22;10442;49.932;11.592;2022-10-31T05:05:17;10.40;77.90
20568;DHT22;10442;49.932;11.592;2022-10-31T05:07:46;10.40;78.20
20568;DHT22;10442;49.932;11.592;2022-10-31T05:10:19;10.40;77.70
20568;DHT22;10442;49.932;11.592;2022-10-31T05:12:54;10.30;77.60
20568;DHT22;10442;49.932;11.592;2022-10-31T05:15:42;10.40;77.60
20568;DHT22;10442;49.932;11.592;2022-10-31T05:18:28;10.30;77.50
20568;DHT22;10442;49.932;11.592;2022-10-31T05:21:14;10.30;77.50
20568;DHT22;10442;49.932;11.592;2022-10-31T05:23:45;10.30;77.50
20568;DHT22;10442;49.932;11.592;2022-10-31T05:26:16;10.30;77.60
20568;DHT22;10442;49.932;11.592;2022-10-31T05:28:44;10.20;77.50
20568;DHT22;10442;49.932;11.592;2022-10-31T05:31:12;10.20;77.50
20568;DHT22;10442;49.932;11.592;2022-10-31T05:33:41;10.20;77.60
20568;DHT22;10442;49.932;11.592;2022-10-31T05:36:11;10.20;77.60
20568;DHT22;10442;49.932;11.592;2022-10-31T05:38:59;10.20;77.70
20568;DHT22;10442;49.932;11.592;2022-10-31T05:41:41;10.10;77.70
20568;DHT22;10442;49.932;11.592;2022-10-31T05:44:15;10.10;77.90
20568;DHT22;10442;49.932;11.592;2022-10-31T05:46:57;10.10;78.30
20568;DHT22;10442;49.932;11.592;2022-10-31T05:49:34;10.10;78.40
20568;DHT22;10442;49.932;11.592;2022-10-31T05:52:27;10.10;78.50
20568;DHT22;10442;49.932;11.592;2022-10-31T05:55:01;10.10;78.40
20568;DHT22;10442;49.932;11.592;2022-10-31T05:57:33;10.10;78.20
20568;DHT22;10442;49.932;11.592;2022-10-31T06:00:01;10.10;78.30
20568;DHT22;10442;49.932;11.592;2022-10-31T06:02:34;10.10;78.30
20568;DHT22;10442;49.932;11.592;2022-10-31T06:05:20;10.10;78.30
20568;DHT22;10442;49.932;11.592;2022-10-31T06:07:48;10.10;78.30
20568;DHT22;10442;49.932;11.592;2022-10-31T06:10:16;10.20;78.30
20568;DHT22;10442;49.932;11.592;2022-10-31T06:12:45;10.20;78.20
20568;DHT22;10442;49.932;11.592;2022-10-31T06:15:30;10.10;78.00
20568;DHT22;10442;49.932;11.592;2022-10-31T06:18:03;10.10;77.90
20568;DHT22;10442;49.932;11.592;2022-10-31T06:20:43;10.10;78.00
20568;DHT22;10442;49.932;11.592;2022-10-31T06:23:11;10.10;78.10
20568;DHT22;10442;49.932;11.592;2022-10-31T06:25:40;10.10;78.10
20568;DHT22;10442;49.932;11.592;2022-10-31T06:28:08;10.10;78.20
20568;DHT22;10442;49.932;11.592;2022-10-31T06:30:49;10.20;78.50
20568;DHT22;10442;49.932;11.592;2022-10-31T06:33:17;10.20;78.40
20568;DHT22;10442;49.932;11.592;2022-10-31T06:35:55;10.20;78.40
20568;DHT22;10442;49.932;11.592;2022-10-31T06:38:23;10.30;78.50
20568;DHT22;10442;49.932;11.592;2022-10-31T06:40:53;10.30;78.60
20568;DHT22;10442;49.932;11.592;2022-10-31T06:43:23;10.30;78.80
20568;DHT22;10442;49.932;11.592;2022-10-31T06:46:02;10.40;79.10
20568;DHT22;10442;49.932;11.592;2022-10-31T06:48:35;10.50;79.40
20568;DHT22;10442;49.932;11.592;2022-10-31T06:51:35;10.60;79.70
20568;DHT22;10442;49.932;11.592;2022-10-31T06:54:02;10.70;80.00
20568;DHT22;10442;49.932;11.592;2022-10-31T06:56:30;10.80;80.30
20568;DHT22;10442;49.932;11.592;2022-10-31T06:58:59;11.00;81.10
20568;DHT22;10442;49.932;11.592;2022-10-31T07:01:59;11.30;80.40
20568;DHT22;10442;49.932;11.592;2022-10-31T07:04:26;11.60;80.40
20568;DHT22;10442;49.932;11.592;2022-10-31T07:06:54;11.80;80.30
20568;DHT22;10442;49.932;11.592;2022-10-31T07:09:22;12.10;80.30
20568;DHT22;10442;49.932;11.592;2022-10-31T07:11:52;12.50;80.00
20568;DHT22;10442;49.932;11.592;2022-10-31T07:14:20;12.90;79.20
20568;DHT22;10442;49.932;11.592;2022-10-31T07:16:49;13.20;77.90
20568;DHT22;10442;49.932;11.592;2022-10-31T07:19:22;13.60;77.00
20568;DHT22;10442;49.932;11.592;2022-10-31T07:21:50;14.00;76.90
20568;DHT22;10442;49.932;11.592;2022-10-31T07:24:18;14.30;76.30
20568;DHT22;10442;49.932;11.592;2022-10-31T07:27:04;14.70;76.00
20568;DHT22;10442;49.932;11.592;2022-10-31T07:29:32;15.20;75.40
20568;DHT22;10442;49.932;11.592;2022-10-31T07:31:59;15.60;74.90
20568;DHT22;10442;49.932;11.592;2022-10-31T07:34:29;16.00;74.30
20568;DHT22;10442;49.932;11.592;2022-10-31T07:37:32;16.50;73.70
20568;DHT22;10442;49.932;11.592;2022-10-31T07:39:59;17.00;71.30
20568;DHT22;10442;49.932;11.592;2022-10-31T07:42:27;17.50;71.40
20568;DHT22;10442;49.932;11.592;2022-10-31T07:44:55;18.00;70.60
20568;DHT22;10442;49.932;11.592;2022-10-31T07:47:59;18.40;69.80
20568;DHT22;10442;49.932;11.592;2022-10-31T07:50:46;19.00;68.60
20568;DHT22;10442;49.932;11.592;2022-10-31T07:53:32;19.50;67.40
20568;DHT22;10442;49.932;11.592;2022-10-31T07:56:10;19.90;66.40
20568;DHT22;10442;49.932;11.592;2022-10-31T07:58:38;20.40;65.40
20568;DHT22;10442;49.932;11.592;2022-10-31T08:01:05;20.70;63.10
20568;DHT22;10442;49.932;11.592;2022-10-31T08:03:42;21.00;61.50
20568;DHT22;10442;49.932;11.592;2022-10-31T08:06:09;21.30;60.80
20568;DHT22;10442;49.932;11.592;2022-10-31T08:08:55;21.50;60.70
20568;DHT22;10442;49.932;11.592;2022-10-31T08:11:23;21.70;59.40
20568;DHT22;10442;49.932;11.592;2022-10-31T08:13:50;21.90;59.40
20568;DHT22;10442;49.932;11.592;2022-10-31T08:16:19;22.00;59.00
20568;DHT22;10442;49.932;11.592;2022-10-31T08:18:54;21.90;57.80
20568;DHT22;10442;49.932;11.592;2022-10-31T08:21:23;21.80;57.70
20568;DHT22;10442;49.932;11.592;2022-10-31T08:23:50;21.60;57.80
20568;DHT22;10442;49.932;11.592;2022-10-31T08:26:21;21.20;57.80
20568;DHT22;10442;49.932;11.592;2022-10-31T08:28:50;20.90;58.40
20568;DHT22;10442;49.932;11.592;2022-10-31T08:31:21;20.60;59.00
20568;DHT22;10442;49.932;11.592;2022-10-31T08:33:48;20.30;59.60
20568;DHT22;10442;49.932;11.592;2022-10-31T08:36:20;19.90;60.30
20568;DHT22;10442;49.932;11.592;2022-10-31T08:38:50;19.60;61.40
20568;DHT22;10442;49.932;11.592;2022-10-31T08:41:17;19.30;62.20
20568;DHT22;10442;49.932;11.592;2022-10-31T08:43:45;19.00;62.90
20568;DHT22;10442;49.932;11.592;2022-10-31T08:46:15;18.70;63.70
20568;DHT22;10442;49.932;11.592;2022-10-31T08:48:44;18.50;64.60
20568;DHT22;10442;49.932;11.592;2022-10-31T08:51:12;18.30;65.00
20568;DHT22;10442;49.932;11.592;2022-10-31T08:53:39;18.20;65.80
20568;DHT22;10442;49.932;11.592;2022-10-31T08:56:29;18.00;66.30
20568;DHT22;10442;49.932;11.592;2022-10-31T08:58:59;17.90;66.80
20568;DHT22;10442;49.932;11.592;2022-10-31T09:01:47;17.80;67.30
20568;DHT22;10442;49.932;11.592;2022-10-31T09:04:14;17.70;67.50
20568;DHT22;10442;49.932;11.592;2022-10-31T09:06:42;17.60;68.20
20568;DHT22;10442;49.932;11.592;2022-10-31T09:09:29;17.60;68.50
20568;DHT22;10442;49.932;11.592;2022-10-31T09:11:57;17.60;68.90
20568;DHT22;10442;49.932;11.592;2022-10-31T09:14:58;17.60;69.10
20568;DHT22;10442;49.932;11.592;2022-10-31T09:17:48;17.60;69.20
20568;DHT22;10442;49.932;11.592;2022-10-31T09:20:39;17.60;69.40
20568;DHT22;10442;49.932;11.592;2022-10-31T09:23:14;17.60;69.50
20568;DHT22;10442;49.932;11.592;2022-10-31T09:25:43;17.70;69.60
20568;DHT22;10442;49.932;11.592;2022-10-31T09:28:36;17.70;69.70
20568;DHT22;10442;49.932;11.592;2022-10-31T09:31:12;17.80;69.90
20568;DHT22;10442;49.932;11.592;2022-10-31T09:33:54;17.80;70.00
20568;DHT22;10442;49.932;11.592;2022-10-31T09:36:39;17.90;70.10
20568;DHT22;10442;49.932;11.592;2022-10-31T09:39:11;17.90;70.20
20568;DHT22;10442;49.932;11.592;2022-10-31T09:47:07;18.10;69.90
20568;DHT22;10442;49.932;11.592;2022-10-31T09:53:16;18.30;70.20
20568;DHT22;10442;49.932;11.592;2022-10-31T09:55:48;18.40;70.00
20568;DHT22;10442;49.932;11.592;2022-10-31T09:58:20;18.50;70.00
20568;DHT22;10442;49.932;11.592;2022-10-31T10:00:50;18.60;70.20
20568;DHT22;10442;49.932;11.592;2022-10-31T10:03:34;18.70;70.00
20568;DHT22;10442;49.932;11.592;2022-10-31T10:06:25;18.80;70.00
20568;DHT22;10442;49.932;11.592;2022-10-31T10:09:26;18.90;69.70
20568;DHT22;10442;49.932;11.592;2022-10-31T10:12:37;19.00;69.30
20568;DHT22;10442;49.932;11.592;2022-10-31T10:15:38;19.20;69.20
20568;DHT22;10442;49.932;11.592;2022-10-31T10:18:32;19.30;69.70
20568;DHT22;10442;49.932;11.592;2022-10-31T10:24:19;19.50;69.30
20568;DHT22;10442;49.932;11.592;2022-10-31T10:27:08;19.60;68.80
20568;DHT22;10442;49.932;11.592;2022-10-31T10:29:44;19.80;68.70
20568;DHT22;10442;49.932;11.592;2022-10-31T10:32:27;19.90;68.60
20568;DHT22;10442;49.932;11.592;2022-10-31T10:35:00;19.90;68.40
20568;DHT22;10442;49.932;11.592;2022-10-31T10:37:36;20.00;68.60
20568;DHT22;10442;49.932;11.592;2022-10-31T10:40:18;20.10;68.30
20568;DHT22;10442;49.932;11.592;2022-10-31T10:43:01;20.20;68.20
20568;DHT22;10442;49.932;11.592;2022-10-31T10:46:40;20.30;68.20
20568;DHT22;10442;49.932;11.592;2022-10-31T10:55:05;20.60;67.40
20568;DHT22;10442;49.932;11.592;2022-10-31T10:57:53;20.70;67.00
20568;DHT22;10442;49.932;11.592;2022-10-31T11:00:25;20.80;67.00
20568;DHT22;10442;49.932;11.592;2022-10-31T11:02:53;20.90;66.80
20568;DHT22;10442;49.932;11.592;2022-10-31T11:05:36;21.00;66.70
20568;DHT22;10442;49.932;11.592;2022-10-31T11:08:05;21.00;66.60
20568;DHT22;10442;49.932;11.592;2022-10-31T11:10:33;21.10;66.50
20568;DHT22;10442;49.932;11.592;2022-10-31T11:13:06;21.20;66.60
20568;DHT22;10442;49.932;11.592;2022-10-31T11:16:11;21.20;66.80
20568;DHT22;10442;49.932;11.592;2022-10-31T11:18:44;21.30;66.80
20568;DHT22;10442;49.932;11.592;2022-10-31T11:21:28;21.40;66.60
20568;DHT22;10442;49.932;11.592;2022-10-31T11:26:38;21.50;66.20
20568;DHT22;10442;49.932;11.592;2022-10-31T11:29:17;21.60;66.20
20568;DHT22;10442;49.932;11.592;2022-10-31T11:31:49;21.60;65.70
20568;DHT22;10442;49.932;11.592;2022-10-31T11:34:30;21.70;65.60
20568;DHT22;10442;49.932;11.592;2022-10-31T11:37:26;21.80;65.10
20568;DHT22;10442;49.932;11.592;2022-10-31T11:39:55;21.80;64.90
20568;DHT22;10442;49.932;11.592;2022-10-31T11:42:26;21.90;64.50
20568;DHT22;10442;49.932;11.592;2022-10-31T11:44:55;21.90;64.50
20568;DHT22;10442;49.932;11.592;2022-10-31T11:47:30;22.00;64.80
20568;DHT22;10442;49.932;11.592;2022-10-31T11:50:02;22.00;64.20
20568;DHT22;10442;49.932;11.592;2022-10-31T11:52:38;22.10;64.10
20568;DHT22;10442;49.932;11.592;2022-10-31T11:57:45;22.10;63.30
20568;DHT22;10442;49.932;11.592;2022-10-31T12:00:27;22.20;63.00
20568;DHT22;10442;49.932;11.592;2022-10-31T12:08:25;22.20;63.30
20568;DHT22;10442;49.932;11.592;2022-10-31T12:11:02;22.20;63.20
20568;DHT22;10442;49.932;11.592;2022-10-31T12:13:34;22.30;62.80
20568;DHT22;10442;49.932;11.592;2022-10-31T12:16:18;22.30;62.60
20568;DHT22;10442;49.932;11.592;2022-10-31T12:18:57;22.30;61.90
20568;DHT22;10442;49.932;11.592;2022-10-31T12:21:48;22.30;62.30
20568;DHT22;10442;49.932;11.592;2022-10-31T12:24:43;22.30;62.20
20568;DHT22;10442;49.932;11.592;2022-10-31T12:27:51;22.40;62.50
20568;DHT22;10442;49.932;11.592;2022-10-31T12:35:48;22.50;62.60
20568;DHT22;10442;49.932;11.592;2022-10-31T12:38:33;22.50;62.70
20568;DHT22;10442;49.932;11.592;2022-10-31T12:44:38;22.60;62.60
20568;DHT22;10442;49.932;11.592;2022-10-31T12:47:42;22.70;62.00
20568;DHT22;10442;49.932;11.592;2022-10-31T12:50:20;22.70;61.90
20568;DHT22;10442;49.932;11.592;2022-10-31T12:53:08;22.70;61.60
20568;DHT22;10442;49.932;11.592;2022-10-31T12:58:26;22.80;61.60
20568;DHT22;10442;49.932;11.592;2022-10-31T13:01:16;22.90;61.70
20568;DHT22;10442;49.932;11.592;2022-10-31T13:06:42;23.00;61.90
20568;DHT22;10442;49.932;11.592;2022-10-31T13:09:15;23.00;61.30
20568;DHT22;10442;49.932;11.592;2022-10-31T13:11:51;23.00;61.40
20568;DHT22;10442;49.932;11.592;2022-10-31T13:17:21;23.00;61.30
20568;DHT22;10442;49.932;11.592;2022-10-31T13:19:53;23.10;61.90
20568;DHT22;10442;49.932;11.592;2022-10-31T13:22:26;23.10;62.30
20568;DHT22;10442;49.932;11.592;2022-10-31T13:27:47;23.10;61.80
20568;DHT22;10442;49.932;11.592;2022-10-31T13:30:21;23.10;61.60
20568;DHT22;10442;49.932;11.592;2022-10-31T13:35:52;23.10;61.20
20568;DHT22;10442;49.932;11.592;2022-10-31T13:49:00;23.00;61.10
20568;DHT22;10442;49.932;11.592;2022-10-31T13:51:33;23.00;61.60
20568;DHT22;10442;49.932;11.592;2022-10-31T13:56:49;23.00;61.70
20568;DHT22;10442;49.932;11.592;2022-10-31T13:59:22;23.00;61.60
20568;DHT22;10442;49.932;11.592;2022-10-31T14:01:55;22.90;61.70
20568;DHT22;10442;49.932;11.592;2022-10-31T14:04:25;22.90;62.00
20568;DHT22;10442;49.932;11.592;2022-10-31T14:07:09;22.90;62.20
20568;DHT22;10442;49.932;11.592;2022-10-31T14:09:38;22.80;62.40
20568;DHT22;10442;49.932;11.592;2022-10-31T14:14:59;22.80;63.00
20568;DHT22;10442;49.932;11.592;2022-10-31T14:17:44;22.80;63.00
20568;DHT22;10442;49.932;11.592;2022-10-31T14:22:42;22.70;63.30
20568;DHT22;10442;49.932;11.592;2022-10-31T14:25:33;22.60;63.40
20568;DHT22;10442;49.932;11.592;2022-10-31T14:28:17;22.60;63.40
20568;DHT22;10442;49.932;11.592;2022-10-31T14:30:56;22.60;63.50
20568;DHT22;10442;49.932;11.592;2022-10-31T14:33:27;22.50;63.30
20568;DHT22;10442;49.932;11.592;2022-10-31T14:36:11;22.50;63.50
20568;DHT22;10442;49.932;11.592;2022-10-31T14:42:00;22.30;63.70
20568;DHT22;10442;49.932;11.592;2022-10-31T14:44:37;22.20;63.90
20568;DHT22;10442;49.932;11.592;2022-10-31T14:47:35;22.20;64.00
20568;DHT22;10442;49.932;11.592;2022-10-31T14:50:24;22.10;64.30
20568;DHT22;10442;49.932;11.592;2022-10-31T14:52:56;22.00;64.30
20568;DHT22;10442;49.932;11.592;2022-10-31T14:55:25;21.90;64.30
20568;DHT22;10442;49.932;11.592;2022-10-31T14:58:00;21.80;64.40
20568;DHT22;10442;49.932;11.592;2022-10-31T15:00:29;21.80;64.70
20568;DHT22;10442;49.932;11.592;2022-10-31T15:03:36;21.70;64.80
20568;DHT22;10442;49.932;11.592;2022-10-31T15:06:21;21.60;65.10
20568;DHT22;10442;49.932;11.592;2022-10-31T15:08:53;21.50;65.30
20568;DHT22;10442;49.932;11.592;2022-10-31T15:11:25;21.50;65.80
20568;DHT22;10442;49.932;11.592;2022-10-31T15:13:56;21.40;65.90
20568;DHT22;10442;49.932;11.592;2022-10-31T15:16:26;21.30;66.20
20568;DHT22;10442;49.932;11.592;2022-10-31T15:21:25;21.20;66.60
20568;DHT22;10442;49.932;11.592;2022-10-31T15:23:58;21.10;67.00
20568;DHT22;10442;49.932;11.592;2022-10-31T15:26:33;21.00;67.00
20568;DHT22;10442;49.932;11.592;2022-10-31T15:29:04;20.90;67.30
20568;DHT22;10442;49.932;11.592;2022-10-31T15:31:32;20.90;67.50
20568;DHT22;10442;49.932;11.592;2022-10-31T15:34:15;20.80;67.50
20568;DHT22;10442;49.932;11.592;2022-10-31T15:36:48;20.70;68.00
20568;DHT22;10442;49.932;11.592;2022-10-31T15:39:17;20.70;68.00
20568;DHT22;10442;49.932;11.592;2022-10-31T15:41:50;20.60;67.90
20568;DHT22;10442;49.932;11.592;2022-10-31T15:44:26;20.50;68.00
20568;DHT22;10442;49.932;11.592;2022-10-31T15:46:59;20.40;68.00
20568;DHT22;10442;49.932;11.592;2022-10-31T15:49:42;20.40;68.60
20568;DHT22;10442;49.932;11.592;2022-10-31T15:54:46;20.20;68.70
20568;DHT22;10442;49.932;11.592;2022-10-31T15:57:14;20.20;69.20
20568;DHT22;10442;49.932;11.592;2022-10-31T15:59:46;20.10;69.20
20568;DHT22;10442;49.932;11.592;2022-10-31T16:02:18;20.00;69.50
20568;DHT22;10442;49.932;11.592;2022-10-31T16:04:59;19.90;69.60
20568;DHT22;10442;49.932;11.592;2022-10-31T16:07:29;19.80;70.20
20568;DHT22;10442;49.932;11.592;2022-10-31T16:09:59;19.80;70.30
20568;DHT22;10442;49.932;11.592;2022-10-31T16:12:35;19.60;70.50
20568;DHT22;10442;49.932;11.592;2022-10-31T16:15:05;19.60;70.80
20568;DHT22;10442;49.932;11.592;2022-10-31T16:17:34;19.50;70.90
20568;DHT22;10442;49.932;11.592;2022-10-31T16:20:04;19.40;71.30
20568;DHT22;10442;49.932;11.592;2022-10-31T16:22:37;19.30;71.40
20568;DHT22;10442;49.932;11.592;2022-10-31T16:25:19;19.30;72.00
20568;DHT22;10442;49.932;11.592;2022-10-31T16:27:53;19.20;72.10
20568;DHT22;10442;49.932;11.592;2022-10-31T16:30:30;19.20;71.60
20568;DHT22;10442;49.932;11.592;2022-10-31T16:33:01;19.10;72.00
20568;DHT22;10442;49.932;11.592;2022-10-31T16:35:34;19.10;71.70
20568;DHT22;10442;49.932;11.592;2022-10-31T16:38:03;19.00;71.80
20568;DHT22;10442;49.932;11.592;2022-10-31T16:40:31;18.90;71.80
20568;DHT22;10442;49.932;11.592;2022-10-31T16:42:59;18.90;72.00
20568;DHT22;10442;49.932;11.592;2022-10-31T16:45:30;18.80;72.20
20568;DHT22;10442;49.932;11.592;2022-10-31T16:48:06;18.80;72.40
20568;DHT22;10442;49.932;11.592;2022-10-31T16:50:37;18.70;72.60
20568;DHT22;10442;49.932;11.592;2022-10-31T16:53:04;18.60;72.20
20568;DHT22;10442;49.932;11.592;2022-10-31T16:55:43;18.50;72.40
20568;DHT22;10442;49.932;11.592;2022-10-31T16:58:17;18.50;72.60
20568;DHT22;10442;49.932;11.592;2022-10-31T17:00:46;18.40;73.10
20568;DHT22;10442;49.932;11.592;2022-10-31T17:03:14;18.40;72.90
20568;DHT22;10442;49.932;11.592;2022-10-31T17:05:41;18.30;73.30
20568;DHT22;10442;49.932;11.592;2022-10-31T17:08:08;18.20;73.40
20568;DHT22;10442;49.932;11.592;2022-10-31T17:10:36;18.20;73.60
20568;DHT22;10442;49.932;11.592;2022-10-31T17:13:09;18.10;73.90
20568;DHT22;10442;49.932;11.592;2022-10-31T17:15:41;18.10;73.90
20568;DHT22;10442;49.932;11.592;2022-10-31T17:18:14;18.10;74.20
20568;DHT22;10442;49.932;11.592;2022-10-31T17:20:42;18.00;74.30
20568;DHT22;10442;49.932;11.592;2022-10-31T17:23:12;18.00;74.00
20568;DHT22;10442;49.932;11.592;2022-10-31T17:25:40;18.00;74.30
20568;DHT22;10442;49.932;11.592;2022-10-31T17:28:11;17.90;74.20
20568;DHT22;10442;49.932;11.592;2022-10-31T17:30:40;17.90;74.30
20568;DHT22;10442;49.932;11.592;2022-10-31T17:33:12;17.90;74.20
20568;DHT22;10442;49.932;11.592;2022-10-31T17:35:42;17.90;74.40
20568;DHT22;10442;49.932;11.592;2022-10-31T17:38:11;17.80;74.50